PWSweather.com
Personal Weather Stations
Station Observations
WD4JKH
Forsyth, GA 31029

Forsyth, GA 31029

Lat: 33.033225, Lon: -83.927995

Elevation: 709

Station Type: Davis Vantage VUE

High Low Average
Temperature 74.2°F23.4°C 58.2°F14.6°C 65.3°F18.5°C
Dew Point 60.5°F15.8°C 38.2°F3.4°C 51.1°F10.6°C
Winds 11.2 mph 18.0 kmh 1.0 mph 1.6 kmh 4.0 mph W6.4 kmh W
Wind Gusts 26.0 mph41.8 kmh 3.0 mph4.8 kmh 12.0 mph19.3 kmh
Humidity 97% 28% 65%
Pressure 29.99 in1015.6 mb 29.76 in1007.8 mb -
Precipitation 0.03 in0.8 mm - -
Hour Temp Dew Point Humidity Winds Wind Gusts Pressure Precip Precip Rate Daily Precip Total
12:04 AM 59.7°F15.4°C 57.9°F14.4°C 94% 1.6 mph S2.6 kmh S 12.0 mph19.3 kmh 29.83 in1010.2 mb 0.02 in0.5 mm 0.30 in7.6 mm 0.02 in0.5 mm
12:08 AM 59.6°F15.3°C 57.8°F14.3°C 94% 1.9 mph SSE3.1 kmh SSE 12.0 mph19.3 kmh 29.82 in1009.8 mb 0.01 in0.3 mm 0.00 in0.0 mm 0.02 in0.5 mm
12:13 AM 59.6°F15.3°C 57.8°F14.3°C 94% 1.0 mph SW1.6 kmh SW 7.0 mph11.3 kmh 29.81 in1009.5 mb 0.01 in0.3 mm 0.00 in0.0 mm 0.02 in0.5 mm
12:18 AM 59.5°F15.3°C 57.7°F14.3°C 94% 1.2 mph SSW1.9 kmh SSW 7.0 mph11.3 kmh 29.82 in1009.8 mb 0.00 in0.0 mm 0.00 in0.0 mm 0.02 in0.5 mm
12:23 AM 59.5°F15.3°C 57.7°F14.3°C 94% 1.8 mph SSW2.9 kmh SSW 7.0 mph11.3 kmh 29.82 in1009.8 mb 0.01 in0.3 mm 0.12 in3.0 mm 0.03 in0.8 mm
12:28 AM 59.4°F15.2°C 57.9°F14.4°C 95% 1.8 mph SW2.9 kmh SW 7.0 mph11.3 kmh 29.82 in1009.8 mb 0.01 in0.3 mm 0.00 in0.0 mm 0.03 in0.8 mm
12:33 AM 59.4°F15.2°C 57.9°F14.4°C 95% 2.3 mph WSW3.7 kmh WSW 7.0 mph11.3 kmh 29.82 in1009.8 mb 0.01 in0.3 mm 0.00 in0.0 mm 0.03 in0.8 mm
12:38 AM 59.3°F15.2°C 57.8°F14.3°C 95% 1.6 mph SW2.6 kmh SW 7.0 mph11.3 kmh 29.81 in1009.5 mb 0.01 in0.3 mm 0.00 in0.0 mm 0.03 in0.8 mm
12:43 AM 59.3°F15.2°C 57.8°F14.3°C 95% 1.4 mph SW2.3 kmh SW 7.0 mph11.3 kmh 29.81 in1009.5 mb 0.01 in0.3 mm 0.00 in0.0 mm 0.03 in0.8 mm
12:48 AM 59.3°F15.2°C 57.8°F14.3°C 95% 2.0 mph SW3.2 kmh SW 5.0 mph8.0 kmh 29.81 in1009.5 mb 0.01 in0.3 mm 0.00 in0.0 mm 0.03 in0.8 mm
12:53 AM 59.3°F15.2°C 57.8°F14.3°C 95% 1.0 mph SW1.6 kmh SW 4.0 mph6.4 kmh 29.80 in1009.1 mb 0.01 in0.3 mm 0.00 in0.0 mm 0.03 in0.8 mm
12:58 AM 59.3°F15.2°C 57.8°F14.3°C 95% 1.3 mph SW2.1 kmh SW 4.0 mph6.4 kmh 29.80 in1009.1 mb 0.01 in0.3 mm 0.00 in0.0 mm 0.03 in0.8 mm
01:03 AM 59.3°F15.2°C 58.1°F14.5°C 96% 2.4 mph SW3.9 kmh SW 6.0 mph9.7 kmh 29.80 in1009.1 mb 0.01 in0.3 mm 0.00 in0.0 mm 0.03 in0.8 mm
01:08 AM 59.3°F15.2°C 58.1°F14.5°C 96% 2.2 mph SW3.5 kmh SW 6.0 mph9.7 kmh 29.81 in1009.5 mb 0.01 in0.3 mm 0.00 in0.0 mm 0.03 in0.8 mm
01:13 AM 59.3°F15.2°C 58.1°F14.5°C 96% 2.5 mph SW4.0 kmh SW 7.0 mph11.3 kmh 29.80 in1009.1 mb 0.01 in0.3 mm 0.00 in0.0 mm 0.03 in0.8 mm
01:18 AM 59.3°F15.2°C 58.1°F14.5°C 96% 2.1 mph SW3.4 kmh SW 7.0 mph11.3 kmh 29.80 in1009.1 mb 0.01 in0.3 mm 0.00 in0.0 mm 0.03 in0.8 mm
01:23 AM 59.3°F15.2°C 58.1°F14.5°C 96% 1.0 mph SW1.6 kmh SW 7.0 mph11.3 kmh 29.79 in1008.8 mb 0.00 in0.0 mm 0.00 in0.0 mm 0.03 in0.8 mm
01:28 AM 59.3°F15.2°C 58.1°F14.5°C 96% 2.4 mph SW3.9 kmh SW 7.0 mph11.3 kmh 29.79 in1008.8 mb 0.00 in0.0 mm 0.00 in0.0 mm 0.03 in0.8 mm
01:33 AM 59.2°F15.1°C 58.1°F14.5°C 96% 1.7 mph SW2.7 kmh SW 6.0 mph9.7 kmh 29.79 in1008.8 mb 0.00 in0.0 mm 0.00 in0.0 mm 0.03 in0.8 mm
01:38 AM 59.2°F15.1°C 58.1°F14.5°C 96% 1.8 mph S2.9 kmh S 5.0 mph8.0 kmh 29.79 in1008.8 mb 0.00 in0.0 mm 0.00 in0.0 mm 0.03 in0.8 mm
01:43 AM 59.2°F15.1°C 58.1°F14.5°C 96% 1.2 mph SW1.9 kmh SW 7.0 mph11.3 kmh 29.78 in1008.5 mb 0.00 in0.0 mm 0.00 in0.0 mm 0.03 in0.8 mm
01:48 AM 59.1°F15.1°C 58.0°F14.4°C 96% 1.0 mph SW1.6 kmh SW 7.0 mph11.3 kmh 29.78 in1008.5 mb 0.00 in0.0 mm 0.00 in0.0 mm 0.03 in0.8 mm
01:53 AM 59.0°F15.0°C 57.9°F14.4°C 96% 2.2 mph SW3.5 kmh SW 7.0 mph11.3 kmh 29.78 in1008.5 mb 0.00 in0.0 mm 0.00 in0.0 mm 0.03 in0.8 mm
01:58 AM 59.0°F15.0°C 57.8°F14.3°C 96% 2.5 mph SW4.0 kmh SW 7.0 mph11.3 kmh 29.78 in1008.5 mb 0.00 in0.0 mm 0.00 in0.0 mm 0.03 in0.8 mm
02:03 AM 59.1°F15.1°C 57.9°F14.4°C 96% 2.7 mph SW4.3 kmh SW 5.0 mph8.0 kmh 29.77 in1008.1 mb 0.00 in0.0 mm 0.00 in0.0 mm 0.03 in0.8 mm
02:08 AM 59.0°F15.0°C 57.8°F14.3°C 96% 1.4 mph SW2.3 kmh SW 6.0 mph9.7 kmh 29.78 in1008.5 mb 0.00 in0.0 mm 0.00 in0.0 mm 0.03 in0.8 mm
02:13 AM 59.0°F15.0°C 57.8°F14.3°C 96% 2.0 mph SW3.2 kmh SW 6.0 mph9.7 kmh 29.77 in1008.1 mb 0.00 in0.0 mm 0.00 in0.0 mm 0.03 in0.8 mm
02:18 AM 59.0°F15.0°C 57.8°F14.3°C 96% 1.5 mph SW2.4 kmh SW 6.0 mph9.7 kmh 29.77 in1008.1 mb 0.00 in0.0 mm 0.00 in0.0 mm 0.03 in0.8 mm
02:23 AM 59.0°F15.0°C 57.8°F14.3°C 96% 1.8 mph SW2.9 kmh SW 6.0 mph9.7 kmh 29.77 in1008.1 mb 0.00 in0.0 mm 0.00 in0.0 mm 0.03 in0.8 mm
02:28 AM 59.0°F15.0°C 57.8°F14.3°C 96% 2.0 mph SW3.2 kmh SW 6.0 mph9.7 kmh 29.77 in1008.1 mb 0.00 in0.0 mm 0.00 in0.0 mm 0.03 in0.8 mm
02:33 AM 59.0°F15.0°C 57.8°F14.3°C 96% 2.0 mph SW3.2 kmh SW 6.0 mph9.7 kmh 29.77 in1008.1 mb 0.00 in0.0 mm 0.00 in0.0 mm 0.03 in0.8 mm
02:38 AM 59.0°F15.0°C 57.8°F14.3°C 96% 1.5 mph SW2.4 kmh SW 6.0 mph9.7 kmh 29.77 in1008.1 mb 0.00 in0.0 mm 0.00 in0.0 mm 0.03 in0.8 mm
02:43 AM 58.9°F14.9°C 57.7°F14.3°C 96% 1.7 mph SW2.7 kmh SW 6.0 mph9.7 kmh 29.77 in1008.1 mb 0.00 in0.0 mm 0.00 in0.0 mm 0.03 in0.8 mm
02:48 AM 58.8°F14.9°C 57.6°F14.2°C 96% 2.0 mph SW3.2 kmh SW 6.0 mph9.7 kmh 29.77 in1008.1 mb 0.00 in0.0 mm 0.00 in0.0 mm 0.03 in0.8 mm
02:53 AM 58.8°F14.9°C 57.6°F14.2°C 96% 1.6 mph SSW2.6 kmh SSW 6.0 mph9.7 kmh 29.76 in1007.8 mb 0.00 in0.0 mm 0.00 in0.0 mm 0.03 in0.8 mm
02:58 AM 58.7°F14.8°C 57.5°F14.2°C 96% 2.0 mph SW3.2 kmh SW 6.0 mph9.7 kmh 29.76 in1007.8 mb 0.00 in0.0 mm 0.00 in0.0 mm 0.03 in0.8 mm
03:03 AM 58.7°F14.8°C 57.5°F14.2°C 96% 1.4 mph SW2.3 kmh SW 6.0 mph9.7 kmh 29.77 in1008.1 mb 0.00 in0.0 mm 0.00 in0.0 mm 0.03 in0.8 mm
03:08 AM 58.6°F14.8°C 57.4°F14.1°C 96% 1.8 mph SW2.9 kmh SW 5.0 mph8.0 kmh 29.76 in1007.8 mb 0.00 in0.0 mm 0.00 in0.0 mm 0.03 in0.8 mm
03:13 AM 58.6°F14.8°C 57.4°F14.1°C 96% 2.4 mph SW3.9 kmh SW 6.0 mph9.7 kmh 29.76 in1007.8 mb 0.00 in0.0 mm 0.00 in0.0 mm 0.03 in0.8 mm
03:18 AM 58.6°F14.8°C 57.7°F14.3°C 97% 1.5 mph SW2.4 kmh SW 6.0 mph9.7 kmh 29.76 in1007.8 mb 0.00 in0.0 mm 0.00 in0.0 mm 0.03 in0.8 mm
03:23 AM 58.6°F14.8°C 57.7°F14.3°C 97% 1.5 mph SW2.4 kmh SW 6.0 mph9.7 kmh 29.76 in1007.8 mb 0.00 in0.0 mm 0.00 in0.0 mm 0.03 in0.8 mm
03:28 AM 58.6°F14.8°C 57.7°F14.3°C 97% 1.4 mph SW2.3 kmh SW 6.0 mph9.7 kmh 29.76 in1007.8 mb 0.00 in0.0 mm 0.00 in0.0 mm 0.03 in0.8 mm
03:33 AM 58.6°F14.8°C 57.7°F14.3°C 97% 2.4 mph SW3.9 kmh SW 6.0 mph9.7 kmh 29.77 in1008.1 mb 0.00 in0.0 mm 0.00 in0.0 mm 0.03 in0.8 mm
03:38 AM 58.6°F14.8°C 57.8°F14.3°C 97% 1.1 mph SW1.8 kmh SW 5.0 mph8.0 kmh 29.76 in1007.8 mb 0.00 in0.0 mm 0.00 in0.0 mm 0.03 in0.8 mm
03:43 AM 58.6°F14.8°C 57.8°F14.3°C 97% 1.0 mph SW1.6 kmh SW 5.0 mph8.0 kmh 29.77 in1008.1 mb 0.00 in0.0 mm 0.00 in0.0 mm 0.03 in0.8 mm
03:48 AM 58.6°F14.8°C 57.8°F14.3°C 97% 1.2 mph SW1.9 kmh SW 5.0 mph8.0 kmh 29.77 in1008.1 mb 0.00 in0.0 mm 0.00 in0.0 mm 0.03 in0.8 mm
03:53 AM 58.6°F14.8°C 57.8°F14.3°C 97% 1.0 mph SW1.6 kmh SW 5.0 mph8.0 kmh 29.76 in1007.8 mb 0.00 in0.0 mm 0.00 in0.0 mm 0.03 in0.8 mm
03:58 AM 58.6°F14.8°C 57.7°F14.3°C 97% 2.0 mph SW3.2 kmh SW 3.0 mph4.8 kmh 29.76 in1007.8 mb 0.00 in0.0 mm 0.00 in0.0 mm 0.03 in0.8 mm
04:03 AM 58.5°F14.7°C 57.6°F14.2°C 97% 2.2 mph WSW3.5 kmh WSW 4.0 mph6.4 kmh 29.76 in1007.8 mb 0.00 in0.0 mm 0.00 in0.0 mm 0.03 in0.8 mm
04:08 AM 58.5°F14.7°C 57.6°F14.2°C 97% 1.8 mph SW2.9 kmh SW 4.0 mph6.4 kmh 29.76 in1007.8 mb 0.00 in0.0 mm 0.00 in0.0 mm 0.03 in0.8 mm
04:13 AM 58.4°F14.7°C 57.5°F14.2°C 97% 1.8 mph SW2.9 kmh SW 4.0 mph6.4 kmh 29.76 in1007.8 mb 0.00 in0.0 mm 0.00 in0.0 mm 0.03 in0.8 mm
04:18 AM 58.3°F14.6°C 57.4°F14.1°C 97% 1.6 mph SW2.6 kmh SW 4.0 mph6.4 kmh 29.76 in1007.8 mb 0.00 in0.0 mm 0.00 in0.0 mm 0.03 in0.8 mm
04:23 AM 58.3°F14.6°C 57.4°F14.1°C 97% 1.6 mph SW2.6 kmh SW 4.0 mph6.4 kmh 29.76 in1007.8 mb 0.00 in0.0 mm 0.00 in0.0 mm 0.03 in0.8 mm
04:28 AM 58.3°F14.6°C 57.4°F14.1°C 97% 1.6 mph SW2.6 kmh SW 4.0 mph6.4 kmh 29.76 in1007.8 mb 0.00 in0.0 mm 0.00 in0.0 mm 0.03 in0.8 mm
04:33 AM 58.2°F14.6°C 57.3°F14.1°C 97% 1.5 mph SW2.4 kmh SW 4.0 mph6.4 kmh 29.76 in1007.8 mb 0.00 in0.0 mm 0.00 in0.0 mm 0.03 in0.8 mm
04:38 AM 58.2°F14.6°C 57.3°F14.1°C 97% 2.0 mph WSW3.2 kmh WSW 4.0 mph6.4 kmh 29.77 in1008.1 mb 0.00 in0.0 mm 0.00 in0.0 mm 0.03 in0.8 mm
04:43 AM 58.2°F14.6°C 57.3°F14.1°C 97% 2.0 mph WSW3.2 kmh WSW 5.0 mph8.0 kmh 29.77 in1008.1 mb 0.00 in0.0 mm 0.00 in0.0 mm 0.03 in0.8 mm
04:48 AM 58.2°F14.6°C 57.3°F14.1°C 97% 1.5 mph SW2.4 kmh SW 5.0 mph8.0 kmh 29.77 in1008.1 mb 0.00 in0.0 mm 0.00 in0.0 mm 0.03 in0.8 mm
04:53 AM 58.2°F14.6°C 57.3°F14.1°C 97% 2.6 mph WSW4.2 kmh WSW 6.0 mph9.7 kmh 29.77 in1008.1 mb 0.00 in0.0 mm 0.00 in0.0 mm 0.03 in0.8 mm
04:58 AM 58.3°F14.6°C 57.4°F14.1°C 97% 1.4 mph WSW2.3 kmh WSW 6.0 mph9.7 kmh 29.77 in1008.1 mb 0.00 in0.0 mm 0.00 in0.0 mm 0.03 in0.8 mm
05:03 AM 58.3°F14.6°C 57.4°F14.1°C 97% 1.2 mph WSW1.9 kmh WSW 6.0 mph9.7 kmh 29.77 in1008.1 mb 0.00 in0.0 mm 0.00 in0.0 mm 0.03 in0.8 mm
05:07 AM 58.4°F14.7°C 57.5°F14.2°C 97% 2.3 mph SW3.7 kmh SW 6.0 mph9.7 kmh 29.77 in1008.1 mb 0.00 in0.0 mm 0.00 in0.0 mm 0.03 in0.8 mm
05:12 AM 58.4°F14.7°C 57.5°F14.2°C 97% 1.6 mph SW2.6 kmh SW 6.0 mph9.7 kmh 29.77 in1008.1 mb 0.00 in0.0 mm 0.00 in0.0 mm 0.03 in0.8 mm
05:17 AM 58.5°F14.7°C 57.6°F14.2°C 97% 1.7 mph SW2.7 kmh SW 6.0 mph9.7 kmh 29.77 in1008.1 mb 0.00 in0.0 mm 0.00 in0.0 mm 0.03 in0.8 mm
05:22 AM 58.5°F14.7°C 57.6°F14.2°C 97% 1.0 mph WSW1.6 kmh WSW 6.0 mph9.7 kmh 29.77 in1008.1 mb 0.00 in0.0 mm 0.00 in0.0 mm 0.03 in0.8 mm
05:27 AM 58.6°F14.8°C 57.7°F14.3°C 97% 1.9 mph WSW3.1 kmh WSW 6.0 mph9.7 kmh 29.77 in1008.1 mb 0.00 in0.0 mm 0.00 in0.0 mm 0.03 in0.8 mm
05:32 AM 58.7°F14.8°C 57.8°F14.3°C 97% 2.0 mph SW3.2 kmh SW 6.0 mph9.7 kmh 29.77 in1008.1 mb 0.00 in0.0 mm 0.00 in0.0 mm 0.03 in0.8 mm
05:37 AM 58.7°F14.8°C 57.8°F14.3°C 97% 2.1 mph WSW3.4 kmh WSW 5.0 mph8.0 kmh 29.77 in1008.1 mb 0.00 in0.0 mm 0.00 in0.0 mm 0.03 in0.8 mm
05:42 AM 58.8°F14.9°C 57.9°F14.4°C 97% 2.0 mph SW3.2 kmh SW 5.0 mph8.0 kmh 29.77 in1008.1 mb 0.00 in0.0 mm 0.00 in0.0 mm 0.03 in0.8 mm
05:47 AM 58.8°F14.9°C 57.9°F14.4°C 97% 1.5 mph SW2.4 kmh SW 5.0 mph8.0 kmh 29.77 in1008.1 mb 0.00 in0.0 mm 0.00 in0.0 mm 0.03 in0.8 mm
05:52 AM 58.9°F14.9°C 58.0°F14.4°C 97% 1.9 mph SW3.1 kmh SW 5.0 mph8.0 kmh 29.77 in1008.1 mb 0.00 in0.0 mm 0.00 in0.0 mm 0.03 in0.8 mm
05:57 AM 58.9°F14.9°C 58.0°F14.4°C 97% 3.1 mph SW5.0 kmh SW 7.0 mph11.3 kmh 29.78 in1008.5 mb 0.00 in0.0 mm 0.00 in0.0 mm 0.03 in0.8 mm
06:02 AM 59.0°F15.0°C 58.1°F14.5°C 97% 2.3 mph SW3.7 kmh SW 7.0 mph11.3 kmh 29.78 in1008.5 mb 0.00 in0.0 mm 0.00 in0.0 mm 0.03 in0.8 mm
06:07 AM 59.1°F15.1°C 58.2°F14.6°C 97% 2.5 mph SW4.0 kmh SW 7.0 mph11.3 kmh 29.78 in1008.5 mb 0.00 in0.0 mm 0.00 in0.0 mm 0.03 in0.8 mm
06:12 AM 59.1°F15.1°C 58.2°F14.6°C 97% 2.5 mph SW4.0 kmh SW 7.0 mph11.3 kmh 29.78 in1008.5 mb 0.00 in0.0 mm 0.00 in0.0 mm 0.03 in0.8 mm
06:17 AM 59.2°F15.1°C 58.3°F14.6°C 97% 2.4 mph SW3.9 kmh SW 7.0 mph11.3 kmh 29.78 in1008.5 mb 0.00 in0.0 mm 0.00 in0.0 mm 0.03 in0.8 mm
06:22 AM 59.2°F15.1°C 58.3°F14.6°C 97% 1.2 mph WSW1.9 kmh WSW 5.0 mph8.0 kmh 29.78 in1008.5 mb 0.00 in0.0 mm 0.00 in0.0 mm 0.03 in0.8 mm
06:27 AM 59.2°F15.1°C 58.3°F14.6°C 97% 2.0 mph WSW3.2 kmh WSW 7.0 mph11.3 kmh 29.78 in1008.5 mb 0.00 in0.0 mm 0.00 in0.0 mm 0.03 in0.8 mm
06:32 AM 59.3°F15.2°C 58.4°F14.7°C 97% 2.1 mph WSW3.4 kmh WSW 7.0 mph11.3 kmh 29.78 in1008.5 mb 0.00 in0.0 mm 0.00 in0.0 mm 0.03 in0.8 mm
06:37 AM 59.4°F15.2°C 58.5°F14.7°C 97% 1.5 mph WSW2.4 kmh WSW 7.0 mph11.3 kmh 29.78 in1008.5 mb 0.00 in0.0 mm 0.00 in0.0 mm 0.03 in0.8 mm
06:42 AM 59.5°F15.3°C 58.6°F14.8°C 97% 2.6 mph WSW4.2 kmh WSW 7.0 mph11.3 kmh 29.78 in1008.5 mb 0.00 in0.0 mm 0.00 in0.0 mm 0.03 in0.8 mm
06:47 AM 59.6°F15.3°C 58.5°F14.7°C 96% 2.1 mph SW3.4 kmh SW 7.0 mph11.3 kmh 29.78 in1008.5 mb 0.00 in0.0 mm 0.00 in0.0 mm 0.03 in0.8 mm
06:52 AM 59.6°F15.3°C 58.4°F14.7°C 96% 2.6 mph WSW4.2 kmh WSW 8.0 mph12.9 kmh 29.78 in1008.5 mb 0.00 in0.0 mm 0.00 in0.0 mm 0.03 in0.8 mm
06:57 AM 59.7°F15.4°C 58.5°F14.7°C 96% 2.1 mph SW3.4 kmh SW 8.0 mph12.9 kmh 29.79 in1008.8 mb 0.00 in0.0 mm 0.00 in0.0 mm 0.03 in0.8 mm
07:02 AM 59.7°F15.4°C 58.5°F14.7°C 96% 1.5 mph SW2.4 kmh SW 8.0 mph12.9 kmh 29.79 in1008.8 mb 0.00 in0.0 mm 0.00 in0.0 mm 0.03 in0.8 mm
07:07 AM 59.7°F15.4°C 58.5°F14.7°C 96% 2.2 mph WSW3.5 kmh WSW 8.0 mph12.9 kmh 29.79 in1008.8 mb 0.00 in0.0 mm 0.00 in0.0 mm 0.03 in0.8 mm
07:12 AM 59.8°F15.4°C 58.6°F14.8°C 96% 3.5 mph WSW5.6 kmh WSW 7.0 mph11.3 kmh 29.79 in1008.8 mb 0.00 in0.0 mm 0.00 in0.0 mm 0.03 in0.8 mm
07:17 AM 60.0°F15.6°C 58.8°F14.9°C 96% 2.7 mph WSW4.3 kmh WSW 8.0 mph12.9 kmh 29.79 in1008.8 mb 0.00 in0.0 mm 0.00 in0.0 mm 0.03 in0.8 mm
07:22 AM 60.1°F15.6°C 58.9°F14.9°C 96% 2.6 mph SW4.2 kmh SW 8.0 mph12.9 kmh 29.79 in1008.8 mb 0.00 in0.0 mm 0.00 in0.0 mm 0.03 in0.8 mm
07:27 AM 60.2°F15.7°C 59.0°F15.0°C 96% 2.8 mph WSW4.5 kmh WSW 8.0 mph12.9 kmh 29.79 in1008.8 mb 0.00 in0.0 mm 0.00 in0.0 mm 0.03 in0.8 mm
07:32 AM 60.2°F15.7°C 59.0°F15.0°C 96% 2.4 mph SW3.9 kmh SW 7.0 mph11.3 kmh 29.79 in1008.8 mb 0.00 in0.0 mm 0.00 in0.0 mm 0.03 in0.8 mm
07:37 AM 60.2°F15.7°C 59.0°F15.0°C 96% 2.0 mph WSW3.2 kmh WSW 8.0 mph12.9 kmh 29.80 in1009.1 mb 0.00 in0.0 mm 0.00 in0.0 mm 0.03 in0.8 mm
07:42 AM 60.3°F15.7°C 59.1°F15.1°C 96% 3.4 mph WSW5.5 kmh WSW 8.0 mph12.9 kmh 29.79 in1008.8 mb 0.00 in0.0 mm 0.00 in0.0 mm 0.03 in0.8 mm
07:47 AM 60.5°F15.8°C 59.3°F15.2°C 96% 2.0 mph SW3.2 kmh SW 8.0 mph12.9 kmh 29.80 in1009.1 mb 0.00 in0.0 mm 0.00 in0.0 mm 0.03 in0.8 mm
07:52 AM 60.5°F15.8°C 59.3°F15.2°C 96% 3.5 mph WSW5.6 kmh WSW 8.0 mph12.9 kmh 29.80 in1009.1 mb 0.00 in0.0 mm 0.00 in0.0 mm 0.03 in0.8 mm
07:57 AM 60.6°F15.9°C 59.4°F15.2°C 96% 2.4 mph W3.9 kmh W 8.0 mph12.9 kmh 29.79 in1008.8 mb 0.00 in0.0 mm 0.00 in0.0 mm 0.03 in0.8 mm
08:02 AM 60.8°F16.0°C 59.6°F15.3°C 96% 2.7 mph WSW4.3 kmh WSW 9.0 mph14.5 kmh 29.80 in1009.1 mb 0.00 in0.0 mm 0.00 in0.0 mm 0.03 in0.8 mm
08:07 AM 61.1°F16.2°C 59.9°F15.5°C 96% 1.7 mph SW2.7 kmh SW 9.0 mph14.5 kmh 29.79 in1008.8 mb 0.00 in0.0 mm 0.00 in0.0 mm 0.03 in0.8 mm
08:12 AM 61.3°F16.3°C 59.8°F15.4°C 95% 3.4 mph WSW5.5 kmh WSW 9.0 mph14.5 kmh 29.80 in1009.1 mb 0.00 in0.0 mm 0.00 in0.0 mm 0.03 in0.8 mm
08:17 AM 61.4°F16.3°C 59.9°F15.5°C 95% 2.0 mph W3.2 kmh W 9.0 mph14.5 kmh 29.80 in1009.1 mb 0.00 in0.0 mm 0.00 in0.0 mm 0.03 in0.8 mm
08:22 AM 61.6°F16.4°C 60.1°F15.6°C 95% 2.7 mph W4.3 kmh W 7.0 mph11.3 kmh 29.80 in1009.1 mb 0.00 in0.0 mm 0.00 in0.0 mm 0.03 in0.8 mm
08:27 AM 61.8°F16.6°C 60.0°F15.6°C 94% 5.0 mph W8.0 kmh W 11.0 mph17.7 kmh 29.80 in1009.1 mb 0.00 in0.0 mm 0.00 in0.0 mm 0.03 in0.8 mm
08:32 AM 62.5°F16.9°C 60.4°F15.8°C 93% 4.5 mph W7.2 kmh W 12.0 mph19.3 kmh 29.80 in1009.1 mb 0.00 in0.0 mm 0.00 in0.0 mm 0.03 in0.8 mm
08:37 AM 63.2°F17.3°C 60.5°F15.8°C 91% 3.3 mph W5.3 kmh W 12.0 mph19.3 kmh 29.80 in1009.1 mb 0.00 in0.0 mm 0.00 in0.0 mm 0.03 in0.8 mm
08:42 AM 63.4°F17.4°C 60.1°F15.6°C 89% 5.8 mph W9.3 kmh W 12.0 mph19.3 kmh 29.80 in1009.1 mb 0.00 in0.0 mm 0.00 in0.0 mm 0.03 in0.8 mm
08:47 AM 64.0°F17.8°C 60.4°F15.8°C 88% 4.3 mph W6.9 kmh W 15.0 mph24.1 kmh 29.80 in1009.1 mb 0.00 in0.0 mm 0.00 in0.0 mm 0.03 in0.8 mm
08:52 AM 64.5°F18.1°C 60.5°F15.8°C 87% 6.1 mph NW9.8 kmh NW 15.0 mph24.1 kmh 29.80 in1009.1 mb 0.00 in0.0 mm 0.00 in0.0 mm 0.03 in0.8 mm
08:57 AM 65.0°F18.3°C 60.4°F15.8°C 85% 7.0 mph WNW11.3 kmh WNW 15.0 mph24.1 kmh 29.80 in1009.1 mb 0.00 in0.0 mm 0.00 in0.0 mm 0.03 in0.8 mm
09:02 AM 65.2°F18.4°C 60.3°F15.7°C 84% 5.0 mph WNW8.0 kmh WNW 14.0 mph22.5 kmh 29.81 in1009.5 mb 0.00 in0.0 mm 0.00 in0.0 mm 0.03 in0.8 mm
09:07 AM 65.5°F18.6°C 60.2°F15.7°C 83% 4.1 mph NW6.6 kmh NW 14.0 mph22.5 kmh 29.81 in1009.5 mb 0.00 in0.0 mm 0.00 in0.0 mm 0.03 in0.8 mm
09:12 AM 65.8°F18.8°C 59.9°F15.5°C 81% 8.9 mph WNW14.3 kmh WNW 14.0 mph22.5 kmh 29.81 in1009.5 mb 0.00 in0.0 mm 0.00 in0.0 mm 0.03 in0.8 mm
09:17 AM 66.4°F19.1°C 60.1°F15.6°C 80% 7.1 mph WNW11.4 kmh WNW 15.0 mph24.1 kmh 29.80 in1009.1 mb 0.00 in0.0 mm 0.00 in0.0 mm 0.03 in0.8 mm
09:22 AM 66.4°F19.1°C 59.8°F15.4°C 79% 6.1 mph W9.8 kmh W 15.0 mph24.1 kmh 29.80 in1009.1 mb 0.00 in0.0 mm 0.00 in0.0 mm 0.03 in0.8 mm
09:27 AM 66.4°F19.1°C 59.4°F15.2°C 78% 6.5 mph W10.5 kmh W 15.0 mph24.1 kmh 29.81 in1009.5 mb 0.00 in0.0 mm 0.00 in0.0 mm 0.03 in0.8 mm
09:32 AM 66.9°F19.4°C 59.8°F15.4°C 78% 3.9 mph WNW6.3 kmh WNW 15.0 mph24.1 kmh 29.81 in1009.5 mb 0.00 in0.0 mm 0.00 in0.0 mm 0.03 in0.8 mm
09:37 AM 67.4°F19.7°C 59.6°F15.3°C 76% 6.5 mph NW10.5 kmh NW 15.0 mph24.1 kmh 29.81 in1009.5 mb 0.00 in0.0 mm 0.00 in0.0 mm 0.03 in0.8 mm
09:42 AM 67.1°F19.5°C 60.0°F15.6°C 78% 3.7 mph WNW6.0 kmh WNW 15.0 mph24.1 kmh 29.81 in1009.5 mb 0.00 in0.0 mm 0.00 in0.0 mm 0.03 in0.8 mm
09:47 AM 66.6°F19.2°C 58.8°F14.9°C 76% 7.3 mph WNW11.7 kmh WNW 15.0 mph24.1 kmh 29.82 in1009.8 mb 0.00 in0.0 mm 0.00 in0.0 mm 0.03 in0.8 mm
09:52 AM 66.3°F19.1°C 57.9°F14.4°C 74% 10.5 mph WNW16.9 kmh WNW 19.0 mph30.6 kmh 29.82 in1009.8 mb 0.00 in0.0 mm 0.00 in0.0 mm 0.03 in0.8 mm
09:57 AM 66.6°F19.2°C 58.2°F14.6°C 74% 8.5 mph NW13.7 kmh NW 19.0 mph30.6 kmh 29.82 in1009.8 mb 0.00 in0.0 mm 0.00 in0.0 mm 0.03 in0.8 mm
10:02 AM 67.4°F19.7°C 58.2°F14.6°C 72% 4.3 mph NW6.9 kmh NW 19.0 mph30.6 kmh 29.82 in1009.8 mb 0.00 in0.0 mm 0.00 in0.0 mm 0.03 in0.8 mm
10:06 AM 68.0°F20.0°C 58.0°F14.4°C 70% 6.6 mph WNW10.6 kmh WNW 19.0 mph30.6 kmh 29.82 in1009.8 mb 0.00 in0.0 mm 0.00 in0.0 mm 0.03 in0.8 mm
10:11 AM 68.7°F20.4°C 57.9°F14.4°C 68% 4.8 mph NW7.7 kmh NW 19.0 mph30.6 kmh 29.83 in1010.2 mb 0.00 in0.0 mm 0.00 in0.0 mm 0.03 in0.8 mm
10:16 AM 68.7°F20.4°C 57.5°F14.2°C 67% 7.9 mph WNW12.7 kmh WNW 20.0 mph32.2 kmh 29.83 in1010.2 mb 0.00 in0.0 mm 0.00 in0.0 mm 0.03 in0.8 mm
10:21 AM 69.2°F20.7°C 58.0°F14.4°C 67% 3.4 mph WNW5.5 kmh WNW 20.0 mph32.2 kmh 29.83 in1010.2 mb 0.00 in0.0 mm 0.00 in0.0 mm 0.03 in0.8 mm
10:26 AM 69.5°F20.8°C 58.2°F14.6°C 67% 4.4 mph WNW7.1 kmh WNW 20.0 mph32.2 kmh 29.83 in1010.2 mb 0.00 in0.0 mm 0.00 in0.0 mm 0.03 in0.8 mm
10:31 AM 69.9°F21.1°C 57.8°F14.3°C 65% 6.8 mph WNW10.9 kmh WNW 20.0 mph32.2 kmh 29.84 in1010.5 mb 0.00 in0.0 mm 0.00 in0.0 mm 0.03 in0.8 mm
10:36 AM 69.2°F20.7°C 58.0°F14.4°C 67% 6.6 mph W10.6 kmh W 17.0 mph27.4 kmh 29.84 in1010.5 mb 0.00 in0.0 mm 0.00 in0.0 mm 0.03 in0.8 mm
10:41 AM 68.8°F20.4°C 57.6°F14.2°C 67% 7.1 mph WNW11.4 kmh WNW 17.0 mph27.4 kmh 29.84 in1010.5 mb 0.00 in0.0 mm 0.00 in0.0 mm 0.03 in0.8 mm
10:46 AM 68.9°F20.5°C 57.7°F14.3°C 67% 7.2 mph NW11.6 kmh NW 17.0 mph27.4 kmh 29.84 in1010.5 mb 0.00 in0.0 mm 0.00 in0.0 mm 0.03 in0.8 mm
10:51 AM 69.4°F20.8°C 57.7°F14.3°C 66% 6.7 mph NW10.8 kmh NW 19.0 mph30.6 kmh 29.84 in1010.5 mb 0.00 in0.0 mm 0.00 in0.0 mm 0.03 in0.8 mm
10:56 AM 70.0°F21.1°C 57.9°F14.4°C 65% 3.8 mph WNW6.1 kmh WNW 19.0 mph30.6 kmh 29.85 in1010.8 mb 0.00 in0.0 mm 0.00 in0.0 mm 0.03 in0.8 mm
11:01 AM 70.2°F21.2°C 57.2°F14.0°C 63% 9.0 mph WNW14.5 kmh WNW 19.0 mph30.6 kmh 29.85 in1010.8 mb 0.00 in0.0 mm 0.00 in0.0 mm 0.03 in0.8 mm
11:06 AM 69.4°F20.8°C 56.3°F13.5°C 63% 10.2 mph NW16.4 kmh NW 19.0 mph30.6 kmh 29.85 in1010.8 mb 0.00 in0.0 mm 0.00 in0.0 mm 0.03 in0.8 mm
11:11 AM 68.6°F20.3°C 57.2°F14.0°C 67% 6.6 mph WNW10.6 kmh WNW 17.0 mph27.4 kmh 29.85 in1010.8 mb 0.00 in0.0 mm 0.00 in0.0 mm 0.03 in0.8 mm
11:16 AM 69.1°F20.6°C 56.0°F13.3°C 63% 11.2 mph NW18.0 kmh NW 21.0 mph33.8 kmh 29.85 in1010.8 mb 0.00 in0.0 mm 0.00 in0.0 mm 0.03 in0.8 mm
11:21 AM 69.0°F20.6°C 56.5°F13.6°C 64% 9.5 mph WNW15.3 kmh WNW 21.0 mph33.8 kmh 29.85 in1010.8 mb 0.00 in0.0 mm 0.00 in0.0 mm 0.03 in0.8 mm
11:26 AM 69.0°F20.6°C 56.1°F13.4°C 63% 6.1 mph NW9.8 kmh NW 21.0 mph33.8 kmh 29.85 in1010.8 mb 0.00 in0.0 mm 0.00 in0.0 mm 0.03 in0.8 mm
11:31 AM 69.2°F20.7°C 55.4°F13.0°C 61% 4.7 mph NW7.6 kmh NW 24.0 mph38.6 kmh 29.85 in1010.8 mb 0.00 in0.0 mm 0.00 in0.0 mm 0.03 in0.8 mm
11:36 AM 69.5°F20.8°C 55.2°F12.9°C 60% 7.6 mph WNW12.2 kmh WNW 24.0 mph38.6 kmh 29.85 in1010.8 mb 0.00 in0.0 mm 0.00 in0.0 mm 0.03 in0.8 mm
11:41 AM 69.8°F21.0°C 55.5°F13.1°C 60% 6.0 mph WNW9.7 kmh WNW 24.0 mph38.6 kmh 29.85 in1010.8 mb 0.00 in0.0 mm 0.00 in0.0 mm 0.03 in0.8 mm
11:46 AM 69.6°F20.9°C 54.3°F12.4°C 58% 7.9 mph WNW12.7 kmh WNW 18.0 mph29.0 kmh 29.85 in1010.8 mb 0.00 in0.0 mm 0.00 in0.0 mm 0.03 in0.8 mm
11:51 AM 69.6°F20.9°C 54.3°F12.4°C 58% 9.3 mph WNW15.0 kmh WNW 19.0 mph30.6 kmh 29.85 in1010.8 mb 0.00 in0.0 mm 0.00 in0.0 mm 0.03 in0.8 mm
11:56 AM 69.9°F21.1°C 55.1°F12.8°C 59% 6.9 mph NW11.1 kmh NW 19.0 mph30.6 kmh 29.85 in1010.8 mb 0.00 in0.0 mm 0.00 in0.0 mm 0.03 in0.8 mm
12:01 PM 69.9°F21.1°C 54.9°F12.7°C 59% 4.7 mph NW7.6 kmh NW 19.0 mph30.6 kmh 29.85 in1010.8 mb 0.00 in0.0 mm 0.00 in0.0 mm 0.03 in0.8 mm
12:06 PM 70.4°F21.3°C 54.0°F12.2°C 56% 6.5 mph WNW10.5 kmh WNW 19.0 mph30.6 kmh 29.85 in1010.8 mb 0.00 in0.0 mm 0.00 in0.0 mm 0.03 in0.8 mm
12:11 PM 70.7°F21.5°C 54.4°F12.4°C 56% 7.7 mph NW12.4 kmh NW 17.0 mph27.4 kmh 29.85 in1010.8 mb 0.00 in0.0 mm 0.00 in0.0 mm 0.03 in0.8 mm
12:16 PM 70.7°F21.5°C 54.9°F12.7°C 57% 5.1 mph W8.2 kmh W 19.0 mph30.6 kmh 29.85 in1010.8 mb 0.00 in0.0 mm 0.00 in0.0 mm 0.03 in0.8 mm
12:21 PM 70.5°F21.4°C 53.2°F11.8°C 54% 8.9 mph WNW14.3 kmh WNW 19.0 mph30.6 kmh 29.85 in1010.8 mb 0.00 in0.0 mm 0.00 in0.0 mm 0.03 in0.8 mm
12:26 PM 70.5°F21.4°C 53.7°F12.1°C 55% 4.4 mph W7.1 kmh W 19.0 mph30.6 kmh 29.85 in1010.8 mb 0.00 in0.0 mm 0.00 in0.0 mm 0.03 in0.8 mm
12:31 PM 70.7°F21.5°C 53.9°F12.2°C 55% 6.9 mph NW11.1 kmh NW 19.0 mph30.6 kmh 29.85 in1010.8 mb 0.00 in0.0 mm 0.00 in0.0 mm 0.03 in0.8 mm
12:36 PM 70.8°F21.6°C 52.9°F11.6°C 53% 5.2 mph NW8.4 kmh NW 19.0 mph30.6 kmh 29.84 in1010.5 mb 0.00 in0.0 mm 0.00 in0.0 mm 0.03 in0.8 mm
12:41 PM 70.9°F21.6°C 53.5°F11.9°C 54% 5.9 mph WNW9.5 kmh WNW 19.0 mph30.6 kmh 29.84 in1010.5 mb 0.00 in0.0 mm 0.00 in0.0 mm 0.03 in0.8 mm
12:46 PM 71.1°F21.7°C 53.2°F11.8°C 53% 8.0 mph WNW12.9 kmh WNW 19.0 mph30.6 kmh 29.84 in1010.5 mb 0.00 in0.0 mm 0.00 in0.0 mm 0.03 in0.8 mm
12:51 PM 71.0°F21.7°C 53.6°F12.0°C 54% 8.8 mph W14.2 kmh W 19.0 mph30.6 kmh 29.84 in1010.5 mb 0.00 in0.0 mm 0.00 in0.0 mm 0.03 in0.8 mm
12:56 PM 71.1°F21.7°C 51.0°F10.6°C 49% 10.9 mph WNW17.5 kmh WNW 23.0 mph37.0 kmh 29.84 in1010.5 mb 0.00 in0.0 mm 0.00 in0.0 mm 0.03 in0.8 mm
01:01 PM 71.6°F22.0°C 51.4°F10.8°C 49% 6.9 mph WNW11.1 kmh WNW 23.0 mph37.0 kmh 29.84 in1010.5 mb 0.00 in0.0 mm 0.00 in0.0 mm 0.03 in0.8 mm
01:06 PM 72.2°F22.3°C 52.0°F11.1°C 49% 2.6 mph NW4.2 kmh NW 23.0 mph37.0 kmh 29.84 in1010.5 mb 0.00 in0.0 mm 0.00 in0.0 mm 0.03 in0.8 mm
01:11 PM 72.7°F22.6°C 53.6°F12.0°C 51% 3.8 mph WNW6.1 kmh WNW 23.0 mph37.0 kmh 29.84 in1010.5 mb 0.00 in0.0 mm 0.00 in0.0 mm 0.03 in0.8 mm
01:16 PM 72.6°F22.6°C 54.1°F12.3°C 52% 5.0 mph W8.0 kmh W 17.0 mph27.4 kmh 29.84 in1010.5 mb 0.00 in0.0 mm 0.00 in0.0 mm 0.03 in0.8 mm
01:21 PM 72.1°F22.3°C 53.6°F12.0°C 52% 8.9 mph W14.3 kmh W 18.0 mph29.0 kmh 29.84 in1010.5 mb 0.00 in0.0 mm 0.00 in0.0 mm 0.03 in0.8 mm
01:26 PM 72.4°F22.4°C 52.8°F11.6°C 50% 5.6 mph WNW9.0 kmh WNW 18.0 mph29.0 kmh 29.84 in1010.5 mb 0.00 in0.0 mm 0.00 in0.0 mm 0.03 in0.8 mm
01:31 PM 72.3°F22.4°C 52.7°F11.5°C 50% 4.1 mph WNW6.6 kmh WNW 18.0 mph29.0 kmh 29.84 in1010.5 mb 0.00 in0.0 mm 0.00 in0.0 mm 0.03 in0.8 mm
01:36 PM 72.9°F22.7°C 51.5°F10.8°C 47% 8.1 mph WNW13.0 kmh WNW 26.0 mph41.8 kmh 29.84 in1010.5 mb 0.00 in0.0 mm 0.00 in0.0 mm 0.03 in0.8 mm
01:41 PM 72.6°F22.6°C 50.0°F10.0°C 45% 7.6 mph WNW12.2 kmh WNW 26.0 mph41.8 kmh 29.84 in1010.5 mb 0.00 in0.0 mm 0.00 in0.0 mm 0.03 in0.8 mm
01:46 PM 72.7°F22.6°C 50.7°F10.4°C 46% 5.8 mph NW9.3 kmh NW 26.0 mph41.8 kmh 29.84 in1010.5 mb 0.00 in0.0 mm 0.00 in0.0 mm 0.03 in0.8 mm
01:51 PM 72.7°F22.6°C 50.7°F10.4°C 46% 4.1 mph NNW6.6 kmh NNW 26.0 mph41.8 kmh 29.84 in1010.5 mb 0.00 in0.0 mm 0.00 in0.0 mm 0.03 in0.8 mm
01:56 PM 72.3°F22.4°C 49.8°F9.9°C 45% 7.2 mph NW11.6 kmh NW 22.0 mph35.4 kmh 29.84 in1010.5 mb 0.00 in0.0 mm 0.00 in0.0 mm 0.03 in0.8 mm
02:01 PM 72.5°F22.5°C 50.5°F10.3°C 46% 5.8 mph NW9.3 kmh NW 14.0 mph22.5 kmh 29.84 in1010.5 mb 0.00 in0.0 mm 0.00 in0.0 mm 0.03 in0.8 mm
02:06 PM 73.1°F22.8°C 50.5°F10.3°C 45% 5.5 mph NW8.9 kmh NW 17.0 mph27.4 kmh 29.85 in1010.8 mb 0.00 in0.0 mm 0.00 in0.0 mm 0.03 in0.8 mm
02:11 PM 73.3°F22.9°C 50.7°F10.4°C 45% 4.7 mph NW7.6 kmh NW 17.0 mph27.4 kmh 29.84 in1010.5 mb 0.00 in0.0 mm 0.00 in0.0 mm 0.03 in0.8 mm
02:16 PM 73.3°F22.9°C 48.1°F8.9°C 41% 9.1 mph WNW14.6 kmh WNW 25.0 mph40.2 kmh 29.85 in1010.8 mb 0.00 in0.0 mm 0.00 in0.0 mm 0.03 in0.8 mm
02:21 PM 73.0°F22.8°C 47.1°F8.4°C 40% 7.2 mph NW11.6 kmh NW 25.0 mph40.2 kmh 29.85 in1010.8 mb 0.00 in0.0 mm 0.00 in0.0 mm 0.03 in0.8 mm
02:26 PM 73.1°F22.8°C 48.6°F9.2°C 42% 5.3 mph N8.5 kmh N 25.0 mph40.2 kmh 29.85 in1010.8 mb 0.00 in0.0 mm 0.00 in0.0 mm 0.03 in0.8 mm
02:31 PM 73.0°F22.8°C 48.5°F9.2°C 42% 5.4 mph NW8.7 kmh NW 25.0 mph40.2 kmh 29.85 in1010.8 mb 0.00 in0.0 mm 0.00 in0.0 mm 0.03 in0.8 mm
02:36 PM 72.6°F22.6°C 48.1°F8.9°C 42% 9.1 mph NW14.6 kmh NW 24.0 mph38.6 kmh 29.85 in1010.8 mb 0.00 in0.0 mm 0.00 in0.0 mm 0.03 in0.8 mm
02:41 PM 72.7°F22.6°C 46.2°F7.9°C 39% 7.0 mph NNW11.3 kmh NNW 24.0 mph38.6 kmh 29.85 in1010.8 mb 0.00 in0.0 mm 0.00 in0.0 mm 0.03 in0.8 mm
02:46 PM 72.7°F22.6°C 46.9°F8.3°C 40% 5.3 mph NW8.5 kmh NW 24.0 mph38.6 kmh 29.85 in1010.8 mb 0.00 in0.0 mm 0.00 in0.0 mm 0.03 in0.8 mm
02:51 PM 73.0°F22.8°C 45.8°F7.7°C 38% 6.9 mph NNW11.1 kmh NNW 24.0 mph38.6 kmh 29.85 in1010.8 mb 0.00 in0.0 mm 0.00 in0.0 mm 0.03 in0.8 mm
02:56 PM 73.0°F22.8°C 46.5°F8.1°C 39% 7.3 mph NW11.7 kmh NW 17.0 mph27.4 kmh 29.84 in1010.5 mb 0.00 in0.0 mm 0.00 in0.0 mm 0.03 in0.8 mm
03:01 PM 73.4°F23.0°C 46.8°F8.2°C 39% 6.6 mph NNW10.6 kmh NNW 17.0 mph27.4 kmh 29.84 in1010.5 mb 0.00 in0.0 mm 0.00 in0.0 mm 0.03 in0.8 mm
03:05 PM 73.5°F23.1°C 46.9°F8.3°C 39% 6.6 mph NW10.6 kmh NW 20.0 mph32.2 kmh 29.84 in1010.5 mb 0.00 in0.0 mm 0.00 in0.0 mm 0.03 in0.8 mm
03:10 PM 73.5°F23.1°C 46.3°F7.9°C 38% 5.4 mph NW8.7 kmh NW 22.0 mph35.4 kmh 29.84 in1010.5 mb 0.00 in0.0 mm 0.00 in0.0 mm 0.03 in0.8 mm
03:15 PM 73.6°F23.1°C 45.7°F7.6°C 37% 6.1 mph NW9.8 kmh NW 22.0 mph35.4 kmh 29.84 in1010.5 mb 0.00 in0.0 mm 0.00 in0.0 mm 0.03 in0.8 mm
03:20 PM 73.9°F23.3°C 45.3°F7.4°C 36% 7.8 mph NW12.6 kmh NW 22.0 mph35.4 kmh 29.85 in1010.8 mb 0.00 in0.0 mm 0.00 in0.0 mm 0.03 in0.8 mm
03:25 PM 73.8°F23.2°C 46.6°F8.1°C 38% 5.4 mph NW8.7 kmh NW 22.0 mph35.4 kmh 29.84 in1010.5 mb 0.00 in0.0 mm 0.00 in0.0 mm 0.03 in0.8 mm
03:30 PM 73.7°F23.2°C 45.1°F7.3°C 36% 6.6 mph NW10.6 kmh NW 16.0 mph25.7 kmh 29.84 in1010.5 mb 0.00 in0.0 mm 0.00 in0.0 mm 0.03 in0.8 mm
03:35 PM 73.8°F23.2°C 44.4°F6.9°C 35% 4.6 mph NW7.4 kmh NW 16.0 mph25.7 kmh 29.84 in1010.5 mb 0.00 in0.0 mm 0.00 in0.0 mm 0.03 in0.8 mm
03:40 PM 73.9°F23.3°C 45.3°F7.4°C 36% 5.6 mph NW9.0 kmh NW 16.0 mph25.7 kmh 29.85 in1010.8 mb 0.00 in0.0 mm 0.00 in0.0 mm 0.03 in0.8 mm
03:45 PM 74.2°F23.4°C 43.1°F6.2°C 33% 6.0 mph N9.7 kmh N 16.0 mph25.7 kmh 29.84 in1010.5 mb 0.00 in0.0 mm 0.00 in0.0 mm 0.03 in0.8 mm
03:50 PM 74.2°F23.4°C 43.9°F6.6°C 34% 4.0 mph NW6.4 kmh NW 16.0 mph25.7 kmh 29.85 in1010.8 mb 0.00 in0.0 mm 0.00 in0.0 mm 0.03 in0.8 mm
03:55 PM 73.9°F23.3°C 42.0°F5.6°C 32% 7.8 mph W12.6 kmh W 16.0 mph25.7 kmh 29.84 in1010.5 mb 0.00 in0.0 mm 0.00 in0.0 mm 0.03 in0.8 mm
04:00 PM 73.9°F23.3°C 42.8°F6.0°C 33% 5.1 mph NW8.2 kmh NW 16.0 mph25.7 kmh 29.85 in1010.8 mb 0.00 in0.0 mm 0.00 in0.0 mm 0.03 in0.8 mm
04:05 PM 73.8°F23.2°C 40.3°F4.6°C 30% 11.0 mph NW17.7 kmh NW 21.0 mph33.8 kmh 29.85 in1010.8 mb 0.00 in0.0 mm 0.00 in0.0 mm 0.03 in0.8 mm
04:10 PM 73.9°F23.3°C 41.2°F5.1°C 31% 3.9 mph NW6.3 kmh NW 21.0 mph33.8 kmh 29.85 in1010.8 mb 0.00 in0.0 mm 0.00 in0.0 mm 0.03 in0.8 mm
04:15 PM 73.9°F23.3°C 41.2°F5.1°C 31% 5.5 mph NW8.9 kmh NW 21.0 mph33.8 kmh 29.85 in1010.8 mb 0.00 in0.0 mm 0.00 in0.0 mm 0.03 in0.8 mm
04:20 PM 73.9°F23.3°C 41.2°F5.1°C 31% 7.5 mph NW12.1 kmh NW 21.0 mph33.8 kmh 29.85 in1010.8 mb 0.00 in0.0 mm 0.00 in0.0 mm 0.03 in0.8 mm
04:25 PM 73.9°F23.3°C 41.2°F5.1°C 31% 6.2 mph NW10.0 kmh NW 17.0 mph27.4 kmh 29.85 in1010.8 mb 0.00 in0.0 mm 0.00 in0.0 mm 0.03 in0.8 mm
04:30 PM 73.8°F23.2°C 41.9°F5.5°C 32% 5.9 mph NW9.5 kmh NW 17.0 mph27.4 kmh 29.85 in1010.8 mb 0.00 in0.0 mm 0.00 in0.0 mm 0.03 in0.8 mm
04:35 PM 73.5°F23.1°C 40.0°F4.4°C 30% 6.4 mph NNW10.3 kmh NNW 17.0 mph27.4 kmh 29.85 in1010.8 mb 0.00 in0.0 mm 0.00 in0.0 mm 0.03 in0.8 mm
04:40 PM 73.7°F23.2°C 41.0°F5.0°C 31% 5.9 mph N9.5 kmh N 17.0 mph27.4 kmh 29.85 in1010.8 mb 0.00 in0.0 mm 0.00 in0.0 mm 0.03 in0.8 mm
04:45 PM 73.6°F23.1°C 39.2°F4.0°C 29% 6.6 mph NW10.6 kmh NW 17.0 mph27.4 kmh 29.86 in1011.2 mb 0.00 in0.0 mm 0.00 in0.0 mm 0.03 in0.8 mm
04:50 PM 73.7°F23.2°C 38.4°F3.6°C 28% 6.6 mph WNW10.6 kmh WNW 16.0 mph25.7 kmh 29.86 in1011.2 mb 0.00 in0.0 mm 0.00 in0.0 mm 0.03 in0.8 mm
04:55 PM 73.6°F23.1°C 38.5°F3.6°C 28% 8.0 mph NW12.9 kmh NW 19.0 mph30.6 kmh 29.86 in1011.2 mb 0.00 in0.0 mm 0.00 in0.0 mm 0.03 in0.8 mm
05:00 PM 73.5°F23.1°C 38.2°F3.4°C 28% 6.7 mph NW10.8 kmh NW 19.0 mph30.6 kmh 29.86 in1011.2 mb 0.00 in0.0 mm 0.00 in0.0 mm 0.03 in0.8 mm
05:05 PM 73.6°F23.1°C 40.1°F4.5°C 30% 3.5 mph NW5.6 kmh NW 19.0 mph30.6 kmh 29.86 in1011.2 mb 0.00 in0.0 mm 0.00 in0.0 mm 0.03 in0.8 mm
05:10 PM 73.6°F23.1°C 38.3°F3.5°C 28% 10.2 mph NW16.4 kmh NW 21.0 mph33.8 kmh 29.86 in1011.2 mb 0.00 in0.0 mm 0.00 in0.0 mm 0.03 in0.8 mm
05:15 PM 73.5°F23.1°C 39.1°F3.9°C 29% 5.6 mph NW9.0 kmh NW 21.0 mph33.8 kmh 29.87 in1011.5 mb 0.00 in0.0 mm 0.00 in0.0 mm 0.03 in0.8 mm
05:20 PM 73.5°F23.1°C 40.0°F4.4°C 30% 4.6 mph NNW7.4 kmh NNW 21.0 mph33.8 kmh 29.86 in1011.2 mb 0.00 in0.0 mm 0.00 in0.0 mm 0.03 in0.8 mm
05:25 PM 73.3°F22.9°C 39.8°F4.3°C 30% 4.6 mph NW7.4 kmh NW 21.0 mph33.8 kmh 29.87 in1011.5 mb 0.00 in0.0 mm 0.00 in0.0 mm 0.03 in0.8 mm
05:30 PM 73.4°F23.0°C 39.0°F3.9°C 29% 6.6 mph WNW10.6 kmh WNW 14.0 mph22.5 kmh 29.87 in1011.5 mb 0.00 in0.0 mm 0.00 in0.0 mm 0.03 in0.8 mm
05:35 PM 73.2°F22.9°C 39.9°F4.4°C 30% 8.2 mph NW13.2 kmh NW 16.0 mph25.7 kmh 29.87 in1011.5 mb 0.00 in0.0 mm 0.00 in0.0 mm 0.03 in0.8 mm
05:40 PM 73.2°F22.9°C 39.7°F4.3°C 30% 4.5 mph WNW7.2 kmh WNW 16.0 mph25.7 kmh 29.87 in1011.5 mb 0.00 in0.0 mm 0.00 in0.0 mm 0.03 in0.8 mm
05:45 PM 73.1°F22.8°C 39.6°F4.2°C 30% 4.4 mph NW7.1 kmh NW 17.0 mph27.4 kmh 29.88 in1011.9 mb 0.00 in0.0 mm 0.00 in0.0 mm 0.03 in0.8 mm
05:50 PM 73.2°F22.9°C 39.7°F4.3°C 30% 5.9 mph NW9.5 kmh NW 17.0 mph27.4 kmh 29.88 in1011.9 mb 0.00 in0.0 mm 0.00 in0.0 mm 0.03 in0.8 mm
05:55 PM 73.1°F22.8°C 40.5°F4.7°C 31% 6.1 mph W9.8 kmh W 17.0 mph27.4 kmh 29.88 in1011.9 mb 0.00 in0.0 mm 0.00 in0.0 mm 0.03 in0.8 mm
06:00 PM 73.0°F22.8°C 40.4°F4.7°C 31% 4.3 mph WNW6.9 kmh WNW 17.0 mph27.4 kmh 29.88 in1011.9 mb 0.00 in0.0 mm 0.00 in0.0 mm 0.03 in0.8 mm
06:05 PM 72.9°F22.7°C 39.5°F4.2°C 30% 5.5 mph NW8.9 kmh NW 17.0 mph27.4 kmh 29.88 in1011.9 mb 0.00 in0.0 mm 0.00 in0.0 mm 0.03 in0.8 mm
06:10 PM 72.7°F22.6°C 40.1°F4.5°C 31% 4.8 mph NW7.7 kmh NW 17.0 mph27.4 kmh 29.88 in1011.9 mb 0.00 in0.0 mm 0.00 in0.0 mm 0.03 in0.8 mm
06:15 PM 72.4°F22.4°C 39.9°F4.4°C 31% 3.3 mph WNW5.3 kmh WNW 15.0 mph24.1 kmh 29.88 in1011.9 mb 0.00 in0.0 mm 0.00 in0.0 mm 0.03 in0.8 mm
06:21 PM 72.2°F22.3°C 39.7°F4.3°C 31% 6.0 mph NW9.7 kmh NW 15.0 mph24.1 kmh 29.89 in1012.2 mb 0.00 in0.0 mm 0.00 in0.0 mm 0.03 in0.8 mm
06:26 PM 72.1°F22.3°C 40.4°F4.7°C 32% 4.7 mph WNW7.6 kmh WNW 13.0 mph20.9 kmh 29.89 in1012.2 mb 0.00 in0.0 mm 0.00 in0.0 mm 0.03 in0.8 mm
06:31 PM 72.1°F22.3°C 40.4°F4.7°C 32% 2.6 mph WNW4.2 kmh WNW 13.0 mph20.9 kmh 29.89 in1012.2 mb 0.00 in0.0 mm 0.00 in0.0 mm 0.03 in0.8 mm
06:36 PM 72.1°F22.3°C 42.0°F5.6°C 34% 1.9 mph W3.1 kmh W 10.0 mph16.1 kmh 29.89 in1012.2 mb 0.00 in0.0 mm 0.00 in0.0 mm 0.03 in0.8 mm
06:41 PM 72.0°F22.2°C 41.1°F5.1°C 33% 2.0 mph NW3.2 kmh NW 10.0 mph16.1 kmh 29.89 in1012.2 mb 0.00 in0.0 mm 0.00 in0.0 mm 0.03 in0.8 mm
06:46 PM 71.9°F22.2°C 41.8°F5.4°C 34% 2.7 mph WNW4.3 kmh WNW 9.0 mph14.5 kmh 29.89 in1012.2 mb 0.00 in0.0 mm 0.00 in0.0 mm 0.03 in0.8 mm
06:51 PM 71.6°F22.0°C 42.3°F5.7°C 35% 1.3 mph WNW2.1 kmh WNW 9.0 mph14.5 kmh 29.89 in1012.2 mb 0.00 in0.0 mm 0.00 in0.0 mm 0.03 in0.8 mm
06:56 PM 71.2°F21.8°C 42.0°F5.6°C 35% 2.6 mph WNW4.2 kmh WNW 7.0 mph11.3 kmh 29.89 in1012.2 mb 0.00 in0.0 mm 0.00 in0.0 mm 0.03 in0.8 mm
07:01 PM 70.8°F21.6°C 41.6°F5.3°C 35% 3.8 mph WNW6.1 kmh WNW 7.0 mph11.3 kmh 29.90 in1012.5 mb 0.00 in0.0 mm 0.00 in0.0 mm 0.03 in0.8 mm
07:06 PM 70.4°F21.3°C 41.3°F5.2°C 35% 3.6 mph WNW5.8 kmh WNW 7.0 mph11.3 kmh 29.90 in1012.5 mb 0.00 in0.0 mm 0.00 in0.0 mm 0.03 in0.8 mm
07:11 PM 69.9°F21.1°C 40.8°F4.9°C 35% 3.7 mph W6.0 kmh W 7.0 mph11.3 kmh 29.90 in1012.5 mb 0.00 in0.0 mm 0.00 in0.0 mm 0.03 in0.8 mm
07:16 PM 69.4°F20.8°C 41.1°F5.1°C 36% 3.2 mph WNW5.1 kmh WNW 7.0 mph11.3 kmh 29.90 in1012.5 mb 0.00 in0.0 mm 0.00 in0.0 mm 0.03 in0.8 mm
07:21 PM 69.0°F20.6°C 40.8°F4.9°C 36% 3.3 mph W5.3 kmh W 7.0 mph11.3 kmh 29.90 in1012.5 mb 0.00 in0.0 mm 0.00 in0.0 mm 0.03 in0.8 mm
07:26 PM 68.6°F20.3°C 41.3°F5.2°C 37% 2.0 mph WNW3.2 kmh WNW 7.0 mph11.3 kmh 29.91 in1012.9 mb 0.00 in0.0 mm 0.00 in0.0 mm 0.03 in0.8 mm
07:31 PM 68.2°F20.1°C 40.9°F4.9°C 37% 2.4 mph WNW3.9 kmh WNW 7.0 mph11.3 kmh 29.91 in1012.9 mb 0.00 in0.0 mm 0.00 in0.0 mm 0.03 in0.8 mm
07:36 PM 67.9°F19.9°C 40.7°F4.8°C 37% 2.4 mph W3.9 kmh W 6.0 mph9.7 kmh 29.91 in1012.9 mb 0.00 in0.0 mm 0.00 in0.0 mm 0.03 in0.8 mm
07:41 PM 67.5°F19.7°C 41.0°F5.0°C 38% 2.0 mph WSW3.2 kmh WSW 5.0 mph8.0 kmh 29.91 in1012.9 mb 0.00 in0.0 mm 0.00 in0.0 mm 0.03 in0.8 mm
07:46 PM 67.2°F19.6°C 40.7°F4.8°C 38% 1.3 mph WSW2.1 kmh WSW 5.0 mph8.0 kmh 29.91 in1012.9 mb 0.00 in0.0 mm 0.00 in0.0 mm 0.03 in0.8 mm
07:51 PM 67.1°F19.5°C 40.6°F4.8°C 38% 2.6 mph W4.2 kmh W 5.0 mph8.0 kmh 29.92 in1013.2 mb 0.00 in0.0 mm 0.00 in0.0 mm 0.03 in0.8 mm
07:56 PM 66.8°F19.3°C 41.0°F5.0°C 39% 3.8 mph W6.1 kmh W 8.0 mph12.9 kmh 29.92 in1013.2 mb 0.00 in0.0 mm 0.00 in0.0 mm 0.03 in0.8 mm
08:01 PM 66.7°F19.3°C 41.6°F5.3°C 40% 1.9 mph W3.1 kmh W 8.0 mph12.9 kmh 29.92 in1013.2 mb 0.00 in0.0 mm 0.00 in0.0 mm 0.03 in0.8 mm
08:05 PM 66.4°F19.1°C 41.3°F5.2°C 40% 2.0 mph WNW3.2 kmh WNW 8.0 mph12.9 kmh 29.93 in1013.5 mb 0.00 in0.0 mm 0.00 in0.0 mm 0.03 in0.8 mm
08:10 PM 66.4°F19.1°C 41.3°F5.2°C 40% 1.7 mph WNW2.7 kmh WNW 8.0 mph12.9 kmh 29.93 in1013.5 mb 0.00 in0.0 mm 0.00 in0.0 mm 0.03 in0.8 mm
08:15 PM 66.2°F19.0°C 41.2°F5.1°C 40% 2.9 mph WNW4.7 kmh WNW 6.0 mph9.7 kmh 29.93 in1013.5 mb 0.00 in0.0 mm 0.00 in0.0 mm 0.03 in0.8 mm
08:20 PM 66.0°F18.9°C 41.6°F5.3°C 41% 2.5 mph W4.0 kmh W 6.0 mph9.7 kmh 29.93 in1013.5 mb 0.00 in0.0 mm 0.00 in0.0 mm 0.03 in0.8 mm
08:25 PM 65.9°F18.8°C 41.5°F5.3°C 41% 2.0 mph W3.2 kmh W 6.0 mph9.7 kmh 29.94 in1013.9 mb 0.00 in0.0 mm 0.00 in0.0 mm 0.03 in0.8 mm
08:30 PM 65.6°F18.7°C 41.3°F5.2°C 41% 1.6 mph W2.6 kmh W 6.0 mph9.7 kmh 29.94 in1013.9 mb 0.00 in0.0 mm 0.00 in0.0 mm 0.03 in0.8 mm
08:35 PM 65.3°F18.5°C 41.5°F5.3°C 42% 2.3 mph W3.7 kmh W 6.0 mph9.7 kmh 29.94 in1013.9 mb 0.00 in0.0 mm 0.00 in0.0 mm 0.03 in0.8 mm
08:40 PM 65.1°F18.4°C 41.3°F5.2°C 42% 2.1 mph W3.4 kmh W 5.0 mph8.0 kmh 29.94 in1013.9 mb 0.00 in0.0 mm 0.00 in0.0 mm 0.03 in0.8 mm
08:45 PM 64.9°F18.3°C 41.1°F5.1°C 42% 1.6 mph W2.6 kmh W 5.0 mph8.0 kmh 29.95 in1014.2 mb 0.00 in0.0 mm 0.00 in0.0 mm 0.03 in0.8 mm
08:50 PM 64.6°F18.1°C 41.5°F5.3°C 43% 1.6 mph W2.6 kmh W 5.0 mph8.0 kmh 29.95 in1014.2 mb 0.00 in0.0 mm 0.00 in0.0 mm 0.03 in0.8 mm
08:55 PM 64.4°F18.0°C 41.3°F5.2°C 43% 2.1 mph W3.4 kmh W 4.0 mph6.4 kmh 29.95 in1014.2 mb 0.00 in0.0 mm 0.00 in0.0 mm 0.03 in0.8 mm
09:00 PM 64.1°F17.8°C 41.7°F5.4°C 44% 1.3 mph W2.1 kmh W 4.0 mph6.4 kmh 29.95 in1014.2 mb 0.00 in0.0 mm 0.00 in0.0 mm 0.03 in0.8 mm
09:05 PM 63.8°F17.7°C 41.4°F5.2°C 44% 1.2 mph W1.9 kmh W 4.0 mph6.4 kmh 29.95 in1014.2 mb 0.00 in0.0 mm 0.00 in0.0 mm 0.03 in0.8 mm
09:10 PM 63.7°F17.6°C 41.3°F5.2°C 44% 2.6 mph W4.2 kmh W 6.0 mph9.7 kmh 29.95 in1014.2 mb 0.00 in0.0 mm 0.00 in0.0 mm 0.03 in0.8 mm
09:15 PM 63.6°F17.6°C 41.8°F5.4°C 45% 1.7 mph W2.7 kmh W 6.0 mph9.7 kmh 29.96 in1014.6 mb 0.00 in0.0 mm 0.00 in0.0 mm 0.03 in0.8 mm
09:20 PM 63.4°F17.4°C 41.6°F5.3°C 45% 2.6 mph W4.2 kmh W 6.0 mph9.7 kmh 29.96 in1014.6 mb 0.00 in0.0 mm 0.00 in0.0 mm 0.03 in0.8 mm
09:25 PM 63.1°F17.3°C 41.9°F5.5°C 46% 2.0 mph W3.2 kmh W 6.0 mph9.7 kmh 29.96 in1014.6 mb 0.00 in0.0 mm 0.00 in0.0 mm 0.03 in0.8 mm
09:30 PM 62.9°F17.2°C 41.8°F5.4°C 46% 2.1 mph W3.4 kmh W 6.0 mph9.7 kmh 29.96 in1014.6 mb 0.00 in0.0 mm 0.00 in0.0 mm 0.03 in0.8 mm
09:35 PM 62.8°F17.1°C 41.7°F5.4°C 46% 1.9 mph W3.1 kmh W 6.0 mph9.7 kmh 29.97 in1014.9 mb 0.00 in0.0 mm 0.00 in0.0 mm 0.03 in0.8 mm
09:40 PM 62.6°F17.0°C 41.5°F5.3°C 46% 2.5 mph W4.0 kmh W 5.0 mph8.0 kmh 29.97 in1014.9 mb 0.00 in0.0 mm 0.00 in0.0 mm 0.03 in0.8 mm
09:45 PM 62.6°F17.0°C 42.1°F5.6°C 47% 2.0 mph W3.2 kmh W 5.0 mph8.0 kmh 29.97 in1014.9 mb 0.00 in0.0 mm 0.00 in0.0 mm 0.03 in0.8 mm
09:50 PM 62.5°F16.9°C 41.4°F5.2°C 46% 1.9 mph W3.1 kmh W 5.0 mph8.0 kmh 29.97 in1014.9 mb 0.00 in0.0 mm 0.00 in0.0 mm 0.03 in0.8 mm
09:55 PM 62.5°F16.9°C 42.0°F5.6°C 47% 2.5 mph W4.0 kmh W 7.0 mph11.3 kmh 29.97 in1014.9 mb 0.00 in0.0 mm 0.00 in0.0 mm 0.03 in0.8 mm
10:00 PM 62.5°F16.9°C 42.0°F5.6°C 47% 2.8 mph W4.5 kmh W 7.0 mph11.3 kmh 29.97 in1014.9 mb 0.00 in0.0 mm 0.00 in0.0 mm 0.03 in0.8 mm
10:05 PM 62.4°F16.9°C 41.9°F5.5°C 47% 1.9 mph WNW3.1 kmh WNW 7.0 mph11.3 kmh 29.97 in1014.9 mb 0.00 in0.0 mm 0.00 in0.0 mm 0.03 in0.8 mm
10:10 PM 62.2°F16.8°C 41.7°F5.4°C 47% 1.4 mph WNW2.3 kmh WNW 7.0 mph11.3 kmh 29.97 in1014.9 mb 0.00 in0.0 mm 0.00 in0.0 mm 0.03 in0.8 mm
10:15 PM 62.2°F16.8°C 41.7°F5.4°C 47% 2.7 mph WNW4.3 kmh WNW 7.0 mph11.3 kmh 29.97 in1014.9 mb 0.00 in0.0 mm 0.00 in0.0 mm 0.03 in0.8 mm
10:20 PM 62.1°F16.7°C 42.2°F5.7°C 48% 2.5 mph W4.0 kmh W 7.0 mph11.3 kmh 29.97 in1014.9 mb 0.00 in0.0 mm 0.00 in0.0 mm 0.03 in0.8 mm
10:25 PM 62.0°F16.7°C 41.5°F5.3°C 47% 1.5 mph W2.4 kmh W 7.0 mph11.3 kmh 29.97 in1014.9 mb 0.00 in0.0 mm 0.00 in0.0 mm 0.03 in0.8 mm
10:30 PM 61.8°F16.6°C 41.9°F5.5°C 48% 1.7 mph W2.7 kmh W 7.0 mph11.3 kmh 29.97 in1014.9 mb 0.00 in0.0 mm 0.00 in0.0 mm 0.03 in0.8 mm
10:35 PM 61.4°F16.3°C 42.1°F5.6°C 49% 1.5 mph W2.4 kmh W 7.0 mph11.3 kmh 29.97 in1014.9 mb 0.00 in0.0 mm 0.00 in0.0 mm 0.03 in0.8 mm
10:40 PM 61.1°F16.2°C 41.8°F5.4°C 49% 1.8 mph W2.9 kmh W 5.0 mph8.0 kmh 29.97 in1014.9 mb 0.00 in0.0 mm 0.00 in0.0 mm 0.03 in0.8 mm
10:45 PM 60.7°F15.9°C 42.5°F5.8°C 51% 1.7 mph WSW2.7 kmh WSW 4.0 mph6.4 kmh 29.98 in1015.2 mb 0.00 in0.0 mm 0.00 in0.0 mm 0.03 in0.8 mm
10:50 PM 60.2°F15.7°C 42.5°F5.8°C 52% 1.7 mph W2.7 kmh W 4.0 mph6.4 kmh 29.98 in1015.2 mb 0.00 in0.0 mm 0.00 in0.0 mm 0.03 in0.8 mm
10:55 PM 60.0°F15.6°C 42.4°F5.8°C 52% 2.4 mph W3.9 kmh W 6.0 mph9.7 kmh 29.98 in1015.2 mb 0.00 in0.0 mm 0.00 in0.0 mm 0.03 in0.8 mm
11:00 PM 59.9°F15.5°C 42.8°F6.0°C 53% 1.5 mph W2.4 kmh W 6.0 mph9.7 kmh 29.98 in1015.2 mb 0.00 in0.0 mm 0.00 in0.0 mm 0.03 in0.8 mm
11:05 PM 59.9°F15.5°C 42.8°F6.0°C 53% 1.9 mph W3.1 kmh W 6.0 mph9.7 kmh 29.98 in1015.2 mb 0.00 in0.0 mm 0.00 in0.0 mm 0.03 in0.8 mm
11:10 PM 59.9°F15.5°C 42.8°F6.0°C 53% 1.3 mph W2.1 kmh W 6.0 mph9.7 kmh 29.98 in1015.2 mb 0.00 in0.0 mm 0.00 in0.0 mm 0.03 in0.8 mm
11:15 PM 59.9°F15.5°C 42.8°F6.0°C 53% 2.9 mph W4.7 kmh W 7.0 mph11.3 kmh 29.98 in1015.2 mb 0.00 in0.0 mm 0.00 in0.0 mm 0.03 in0.8 mm
11:20 PM 60.0°F15.6°C 42.4°F5.8°C 52% 3.0 mph WNW4.8 kmh WNW 7.0 mph11.3 kmh 29.98 in1015.2 mb 0.00 in0.0 mm 0.00 in0.0 mm 0.03 in0.8 mm
11:25 PM 60.5°F15.8°C 42.3°F5.7°C 51% 4.6 mph WNW7.4 kmh WNW 11.0 mph17.7 kmh 29.98 in1015.2 mb 0.00 in0.0 mm 0.00 in0.0 mm 0.03 in0.8 mm
11:30 PM 60.7°F15.9°C 42.5°F5.8°C 51% 2.2 mph W3.5 kmh W 11.0 mph17.7 kmh 29.98 in1015.2 mb 0.00 in0.0 mm 0.00 in0.0 mm 0.03 in0.8 mm
11:35 PM 60.6°F15.9°C 42.4°F5.8°C 51% 1.7 mph WNW2.7 kmh WNW 11.0 mph17.7 kmh 29.98 in1015.2 mb 0.00 in0.0 mm 0.00 in0.0 mm 0.03 in0.8 mm
11:40 PM 60.6°F15.9°C 42.4°F5.8°C 51% 2.0 mph WNW3.2 kmh WNW 11.0 mph17.7 kmh 29.99 in1015.6 mb 0.00 in0.0 mm 0.00 in0.0 mm 0.03 in0.8 mm
11:45 PM 60.3°F15.7°C 42.6°F5.9°C 52% 1.9 mph W3.1 kmh W 6.0 mph9.7 kmh 29.99 in1015.6 mb 0.00 in0.0 mm 0.00 in0.0 mm 0.03 in0.8 mm
11:50 PM 60.0°F15.6°C 42.8°F6.0°C 53% 1.6 mph W2.6 kmh W 6.0 mph9.7 kmh 29.99 in1015.6 mb 0.00 in0.0 mm 0.00 in0.0 mm 0.03 in0.8 mm
11:55 PM 59.9°F15.5°C 42.7°F5.9°C 53% 2.9 mph WNW4.7 kmh WNW 8.0 mph12.9 kmh 29.99 in1015.6 mb 0.00 in0.0 mm 0.00 in0.0 mm 0.03 in0.8 mm